sim
Sign-in with your pilot id or email,
or register
Callsign
Passwort

Schedule Details

Flight Number: OEF9052
Departure: Nairobi Jomo Kenyatta International Airport (HKJK) at 22:00
Arrival: Munich Airport (EDDM) at 05:35

Weather Information
Getting current METAR information for HKJK 281200Z 06013KT 9999 SCT030 27/11 Q1019 NOSIG
Getting current METAR information for EDDM 281220Z 29004KT 9999 FEW020 BKN040 10/06 Q1012 NOSIG

Schedule Frequency

Route Map